sensor_id;sensor_type;location;lat;lon;timestamp;temperature;humidity
40848;DHT22;26570;50.962;5.340;2023-10-09T00:02:27;15.80;99.90
40848;DHT22;26570;50.962;5.340;2023-10-09T00:05:14;15.80;99.90
40848;DHT22;26570;50.962;5.340;2023-10-09T00:08:08;15.80;99.90
40848;DHT22;26570;50.962;5.340;2023-10-09T00:10:53;15.80;99.90
40848;DHT22;26570;50.962;5.340;2023-10-09T00:14:04;15.80;99.90
40848;DHT22;26570;50.962;5.340;2023-10-09T00:16:50;15.70;99.90
40848;DHT22;26570;50.962;5.340;2023-10-09T00:20:08;15.70;99.90
40848;DHT22;26570;50.962;5.340;2023-10-09T00:23:02;15.70;99.90
40848;DHT22;26570;50.962;5.340;2023-10-09T00:25:49;15.60;99.90
40848;DHT22;26570;50.962;5.340;2023-10-09T00:28:53;15.60;99.90
40848;DHT22;26570;50.962;5.340;2023-10-09T00:32:06;15.60;99.90
40848;DHT22;26570;50.962;5.340;2023-10-09T00:35:21;15.50;99.90
40848;DHT22;26570;50.962;5.340;2023-10-09T00:38:22;15.50;99.90
40848;DHT22;26570;50.962;5.340;2023-10-09T00:41:31;15.50;99.90
40848;DHT22;26570;50.962;5.340;2023-10-09T00:44:20;15.40;99.90
40848;DHT22;26570;50.962;5.340;2023-10-09T00:47:12;15.40;99.90
40848;DHT22;26570;50.962;5.340;2023-10-09T00:50:19;15.40;99.90
40848;DHT22;26570;50.962;5.340;2023-10-09T00:53:04;15.40;99.90
40848;DHT22;26570;50.962;5.340;2023-10-09T00:56:04;15.50;99.90
40848;DHT22;26570;50.962;5.340;2023-10-09T00:59:16;15.50;99.90
40848;DHT22;26570;50.962;5.340;2023-10-09T01:02:05;15.60;99.90
40848;DHT22;26570;50.962;5.340;2023-10-09T01:05:13;15.60;99.90
40848;DHT22;26570;50.962;5.340;2023-10-09T01:08:04;15.70;99.90
40848;DHT22;26570;50.962;5.340;2023-10-09T01:11:10;15.70;99.90
40848;DHT22;26570;50.962;5.340;2023-10-09T01:13:59;15.70;99.90
40848;DHT22;26570;50.962;5.340;2023-10-09T01:16:53;15.80;99.90
40848;DHT22;26570;50.962;5.340;2023-10-09T01:19:39;15.80;99.90
40848;DHT22;26570;50.962;5.340;2023-10-09T01:22:28;15.90;99.90
40848;DHT22;26570;50.962;5.340;2023-10-09T01:25:14;16.00;99.90
40848;DHT22;26570;50.962;5.340;2023-10-09T01:28:01;16.20;99.90
40848;DHT22;26570;50.962;5.340;2023-10-09T01:30:46;16.00;99.90
40848;DHT22;26570;50.962;5.340;2023-10-09T01:33:33;16.00;99.90
40848;DHT22;26570;50.962;5.340;2023-10-09T01:36:21;16.00;99.90
40848;DHT22;26570;50.962;5.340;2023-10-09T01:39:16;16.10;99.90
40848;DHT22;26570;50.962;5.340;2023-10-09T01:42:11;16.20;99.90
40848;DHT22;26570;50.962;5.340;2023-10-09T01:45:08;16.20;99.90
40848;DHT22;26570;50.962;5.340;2023-10-09T01:47:57;16.20;99.90
40848;DHT22;26570;50.962;5.340;2023-10-09T01:50:43;16.30;99.90
40848;DHT22;26570;50.962;5.340;2023-10-09T01:53:28;16.30;99.90
40848;DHT22;26570;50.962;5.340;2023-10-09T01:56:15;16.40;99.90
40848;DHT22;26570;50.962;5.340;2023-10-09T01:59:23;16.40;99.90
40848;DHT22;26570;50.962;5.340;2023-10-09T02:02:13;16.60;99.90
40848;DHT22;26570;50.962;5.340;2023-10-09T02:05:14;16.40;99.90
40848;DHT22;26570;50.962;5.340;2023-10-09T02:08:02;16.70;99.90
40848;DHT22;26570;50.962;5.340;2023-10-09T02:11:11;16.60;99.90
40848;DHT22;26570;50.962;5.340;2023-10-09T02:13:59;16.50;99.90
40848;DHT22;26570;50.962;5.340;2023-10-09T02:16:47;16.50;99.90
40848;DHT22;26570;50.962;5.340;2023-10-09T02:19:55;16.50;99.90
40848;DHT22;26570;50.962;5.340;2023-10-09T02:23:04;16.60;99.90
40848;DHT22;26570;50.962;5.340;2023-10-09T02:25:58;16.60;99.90
40848;DHT22;26570;50.962;5.340;2023-10-09T02:28:50;16.50;99.90
40848;DHT22;26570;50.962;5.340;2023-10-09T02:31:48;16.70;99.90
40848;DHT22;26570;50.962;5.340;2023-10-09T02:34:36;16.80;99.90
40848;DHT22;26570;50.962;5.340;2023-10-09T02:37:22;16.90;99.90
40848;DHT22;26570;50.962;5.340;2023-10-09T02:40:10;16.90;99.90
40848;DHT22;26570;50.962;5.340;2023-10-09T02:43:00;16.80;99.90
40848;DHT22;26570;50.962;5.340;2023-10-09T02:45:46;16.70;99.90
40848;DHT22;26570;50.962;5.340;2023-10-09T02:48:35;16.60;99.90
40848;DHT22;26570;50.962;5.340;2023-10-09T02:51:30;16.60;99.90
40848;DHT22;26570;50.962;5.340;2023-10-09T02:54:48;16.60;99.90
40848;DHT22;26570;50.962;5.340;2023-10-09T02:57:35;16.60;99.90
40848;DHT22;26570;50.962;5.340;2023-10-09T03:00:21;16.70;99.90
40848;DHT22;26570;50.962;5.340;2023-10-09T03:03:37;16.60;99.90
40848;DHT22;26570;50.962;5.340;2023-10-09T03:06:23;16.60;99.90
40848;DHT22;26570;50.962;5.340;2023-10-09T03:09:43;16.80;99.90
40848;DHT22;26570;50.962;5.340;2023-10-09T03:12:28;16.70;99.90
40848;DHT22;26570;50.962;5.340;2023-10-09T03:15:14;16.70;99.90
40848;DHT22;26570;50.962;5.340;2023-10-09T03:17:59;16.60;99.90
40848;DHT22;26570;50.962;5.340;2023-10-09T03:20:45;16.60;99.90
40848;DHT22;26570;50.962;5.340;2023-10-09T03:23:31;16.60;99.90
40848;DHT22;26570;50.962;5.340;2023-10-09T03:26:17;16.60;99.90
40848;DHT22;26570;50.962;5.340;2023-10-09T03:29:04;16.60;99.90
40848;DHT22;26570;50.962;5.340;2023-10-09T03:31:55;16.60;99.90
40848;DHT22;26570;50.962;5.340;2023-10-09T03:34:41;16.60;99.90
40848;DHT22;26570;50.962;5.340;2023-10-09T03:37:28;16.60;99.90
40848;DHT22;26570;50.962;5.340;2023-10-09T03:40:20;16.50;99.90
40848;DHT22;26570;50.962;5.340;2023-10-09T03:43:06;16.60;99.90
40848;DHT22;26570;50.962;5.340;2023-10-09T03:46:17;16.60;99.90
40848;DHT22;26570;50.962;5.340;2023-10-09T03:49:17;16.60;99.90
40848;DHT22;26570;50.962;5.340;2023-10-09T03:52:08;16.60;99.90
40848;DHT22;26570;50.962;5.340;2023-10-09T03:54:54;16.60;99.90
40848;DHT22;26570;50.962;5.340;2023-10-09T03:57:40;16.60;99.90
40848;DHT22;26570;50.962;5.340;2023-10-09T04:00:32;16.70;99.90
40848;DHT22;26570;50.962;5.340;2023-10-09T04:03:49;16.80;99.90
40848;DHT22;26570;50.962;5.340;2023-10-09T04:06:40;16.80;99.90
40848;DHT22;26570;50.962;5.340;2023-10-09T04:09:25;16.70;99.90
40848;DHT22;26570;50.962;5.340;2023-10-09T04:12:11;16.70;99.90
40848;DHT22;26570;50.962;5.340;2023-10-09T04:14:56;16.70;99.90
40848;DHT22;26570;50.962;5.340;2023-10-09T04:17:45;16.80;99.90
40848;DHT22;26570;50.962;5.340;2023-10-09T04:20:32;16.70;99.90
40848;DHT22;26570;50.962;5.340;2023-10-09T04:23:17;16.60;99.90
40848;DHT22;26570;50.962;5.340;2023-10-09T04:26:18;16.70;99.90
40848;DHT22;26570;50.962;5.340;2023-10-09T04:29:05;16.70;99.90
40848;DHT22;26570;50.962;5.340;2023-10-09T04:32:00;16.80;99.90
40848;DHT22;26570;50.962;5.340;2023-10-09T04:35:09;16.90;99.90
40848;DHT22;26570;50.962;5.340;2023-10-09T04:38:28;16.90;99.90
40848;DHT22;26570;50.962;5.340;2023-10-09T04:41:19;16.80;99.90
40848;DHT22;26570;50.962;5.340;2023-10-09T04:44:15;16.60;99.90
40848;DHT22;26570;50.962;5.340;2023-10-09T04:47:14;16.70;99.90
40848;DHT22;26570;50.962;5.340;2023-10-09T04:49:59;16.60;99.90
40848;DHT22;26570;50.962;5.340;2023-10-09T04:52:45;16.70;99.90
40848;DHT22;26570;50.962;5.340;2023-10-09T04:55:40;16.70;99.90
40848;DHT22;26570;50.962;5.340;2023-10-09T04:58:29;16.70;99.90
40848;DHT22;26570;50.962;5.340;2023-10-09T05:01:17;16.80;99.90
40848;DHT22;26570;50.962;5.340;2023-10-09T05:04:20;16.60;99.90
40848;DHT22;26570;50.962;5.340;2023-10-09T05:07:24;16.70;99.90
40848;DHT22;26570;50.962;5.340;2023-10-09T05:10:35;16.70;99.90
40848;DHT22;26570;50.962;5.340;2023-10-09T05:13:42;16.70;99.90
40848;DHT22;26570;50.962;5.340;2023-10-09T05:16:28;16.80;99.90
40848;DHT22;26570;50.962;5.340;2023-10-09T05:19:14;16.70;99.90
40848;DHT22;26570;50.962;5.340;2023-10-09T05:22:25;16.80;99.90
40848;DHT22;26570;50.962;5.340;2023-10-09T05:25:27;16.70;99.90
40848;DHT22;26570;50.962;5.340;2023-10-09T05:28:31;16.80;99.90
40848;DHT22;26570;50.962;5.340;2023-10-09T05:31:16;16.80;99.90
40848;DHT22;26570;50.962;5.340;2023-10-09T05:34:23;16.90;99.90
40848;DHT22;26570;50.962;5.340;2023-10-09T05:37:30;16.80;99.90
40848;DHT22;26570;50.962;5.340;2023-10-09T05:40:18;16.80;99.90
40848;DHT22;26570;50.962;5.340;2023-10-09T05:43:06;16.80;99.90
40848;DHT22;26570;50.962;5.340;2023-10-09T05:45:55;16.80;99.90
40848;DHT22;26570;50.962;5.340;2023-10-09T05:49:04;16.70;99.90
40848;DHT22;26570;50.962;5.340;2023-10-09T05:52:04;16.80;99.90
40848;DHT22;26570;50.962;5.340;2023-10-09T05:55:09;16.80;99.90
40848;DHT22;26570;50.962;5.340;2023-10-09T05:58:13;16.90;99.90
40848;DHT22;26570;50.962;5.340;2023-10-09T06:01:16;16.80;99.90
40848;DHT22;26570;50.962;5.340;2023-10-09T06:04:27;16.60;99.90
40848;DHT22;26570;50.962;5.340;2023-10-09T06:07:34;16.60;99.90
40848;DHT22;26570;50.962;5.340;2023-10-09T06:10:34;16.70;99.90
40848;DHT22;26570;50.962;5.340;2023-10-09T06:13:27;16.70;99.90
40848;DHT22;26570;50.962;5.340;2023-10-09T06:16:22;16.70;99.90
40848;DHT22;26570;50.962;5.340;2023-10-09T06:19:36;16.90;99.90
40848;DHT22;26570;50.962;5.340;2023-10-09T06:22:33;16.80;99.90
40848;DHT22;26570;50.962;5.340;2023-10-09T06:25:20;16.80;99.90
40848;DHT22;26570;50.962;5.340;2023-10-09T06:28:11;17.00;99.90
40848;DHT22;26570;50.962;5.340;2023-10-09T06:30:58;17.00;99.90
40848;DHT22;26570;50.962;5.340;2023-10-09T06:34:03;17.00;99.90
40848;DHT22;26570;50.962;5.340;2023-10-09T06:37:00;16.90;99.90
40848;DHT22;26570;50.962;5.340;2023-10-09T06:39:56;17.00;99.90
40848;DHT22;26570;50.962;5.340;2023-10-09T06:42:41;17.00;99.90
40848;DHT22;26570;50.962;5.340;2023-10-09T06:45:25;17.10;99.90
40848;DHT22;26570;50.962;5.340;2023-10-09T06:48:28;17.10;99.90
40848;DHT22;26570;50.962;5.340;2023-10-09T06:51:19;17.10;99.90
40848;DHT22;26570;50.962;5.340;2023-10-09T06:54:09;17.20;99.90
40848;DHT22;26570;50.962;5.340;2023-10-09T06:56:59;17.20;99.90
40848;DHT22;26570;50.962;5.340;2023-10-09T06:59:59;17.10;99.90
40848;DHT22;26570;50.962;5.340;2023-10-09T07:02:55;17.10;99.90
40848;DHT22;26570;50.962;5.340;2023-10-09T07:05:50;17.10;99.90
40848;DHT22;26570;50.962;5.340;2023-10-09T07:08:57;17.10;99.90
40848;DHT22;26570;50.962;5.340;2023-10-09T07:12:44;17.20;99.90
40848;DHT22;26570;50.962;5.340;2023-10-09T07:15:42;17.20;99.90
40848;DHT22;26570;50.962;5.340;2023-10-09T07:19:15;17.20;99.90
40848;DHT22;26570;50.962;5.340;2023-10-09T07:22:22;17.40;99.90
40848;DHT22;26570;50.962;5.340;2023-10-09T07:25:08;17.30;99.90
40848;DHT22;26570;50.962;5.340;2023-10-09T07:28:12;17.30;99.90
40848;DHT22;26570;50.962;5.340;2023-10-09T07:31:05;17.40;99.90
40848;DHT22;26570;50.962;5.340;2023-10-09T07:33:56;17.50;99.90
40848;DHT22;26570;50.962;5.340;2023-10-09T07:36:41;17.50;99.90
40848;DHT22;26570;50.962;5.340;2023-10-09T07:39:35;17.50;99.90
40848;DHT22;26570;50.962;5.340;2023-10-09T07:42:39;17.60;99.90
40848;DHT22;26570;50.962;5.340;2023-10-09T07:46:10;17.70;99.90
40848;DHT22;26570;50.962;5.340;2023-10-09T07:49:17;17.70;99.90
40848;DHT22;26570;50.962;5.340;2023-10-09T07:52:21;17.80;99.90
40848;DHT22;26570;50.962;5.340;2023-10-09T07:55:26;18.00;99.90
40848;DHT22;26570;50.962;5.340;2023-10-09T07:58:14;18.10;99.90
40848;DHT22;26570;50.962;5.340;2023-10-09T08:00:59;18.10;99.90
40848;DHT22;26570;50.962;5.340;2023-10-09T08:04:17;18.30;99.90
40848;DHT22;26570;50.962;5.340;2023-10-09T08:07:12;18.60;99.90
40848;DHT22;26570;50.962;5.340;2023-10-09T08:10:21;18.80;99.90
40848;DHT22;26570;50.962;5.340;2023-10-09T08:13:26;18.80;99.90
40848;DHT22;26570;50.962;5.340;2023-10-09T08:16:30;18.70;99.90
40848;DHT22;26570;50.962;5.340;2023-10-09T08:19:24;18.70;99.90
40848;DHT22;26570;50.962;5.340;2023-10-09T08:23:03;18.80;99.90
40848;DHT22;26570;50.962;5.340;2023-10-09T08:26:09;18.70;99.90
40848;DHT22;26570;50.962;5.340;2023-10-09T08:29:18;18.90;99.90
40848;DHT22;26570;50.962;5.340;2023-10-09T08:32:08;19.00;99.90
40848;DHT22;26570;50.962;5.340;2023-10-09T08:35:36;19.10;99.90
40848;DHT22;26570;50.962;5.340;2023-10-09T08:38:52;19.20;99.90
40848;DHT22;26570;50.962;5.340;2023-10-09T08:41:45;19.20;99.90
40848;DHT22;26570;50.962;5.340;2023-10-09T08:44:34;19.30;99.90
40848;DHT22;26570;50.962;5.340;2023-10-09T08:47:21;19.30;99.90
40848;DHT22;26570;50.962;5.340;2023-10-09T08:50:26;19.30;99.90
40848;DHT22;26570;50.962;5.340;2023-10-09T08:53:13;19.40;99.90
40848;DHT22;26570;50.962;5.340;2023-10-09T08:56:19;19.50;99.90
40848;DHT22;26570;50.962;5.340;2023-10-09T08:59:08;19.60;99.90
40848;DHT22;26570;50.962;5.340;2023-10-09T09:01:55;19.90;99.90
40848;DHT22;26570;50.962;5.340;2023-10-09T09:04:44;20.30;99.90
40848;DHT22;26570;50.962;5.340;2023-10-09T09:07:37;20.50;99.90
40848;DHT22;26570;50.962;5.340;2023-10-09T09:10:31;20.60;99.90
40848;DHT22;26570;50.962;5.340;2023-10-09T09:16:42;21.10;99.90
40848;DHT22;26570;50.962;5.340;2023-10-09T09:22:55;21.00;99.90
40848;DHT22;26570;50.962;5.340;2023-10-09T09:25:46;21.20;99.90
40848;DHT22;26570;50.962;5.340;2023-10-09T09:28:54;21.20;99.90
40848;DHT22;26570;50.962;5.340;2023-10-09T09:31:56;21.70;99.90
40848;DHT22;26570;50.962;5.340;2023-10-09T09:35:05;22.00;99.90
40848;DHT22;26570;50.962;5.340;2023-10-09T09:38:14;22.10;99.90
40848;DHT22;26570;50.962;5.340;2023-10-09T09:41:06;22.20;99.90
40848;DHT22;26570;50.962;5.340;2023-10-09T09:43:56;22.40;99.90
40848;DHT22;26570;50.962;5.340;2023-10-09T09:47:13;22.40;99.90
40848;DHT22;26570;50.962;5.340;2023-10-09T09:49:58;22.40;99.90
40848;DHT22;26570;50.962;5.340;2023-10-09T09:53:33;22.60;99.90
40848;DHT22;26570;50.962;5.340;2023-10-09T09:56:25;22.60;99.90
40848;DHT22;26570;50.962;5.340;2023-10-09T09:59:13;22.60;99.90
40848;DHT22;26570;50.962;5.340;2023-10-09T10:02:43;22.70;99.90
40848;DHT22;26570;50.962;5.340;2023-10-09T10:05:43;22.80;99.90
40848;DHT22;26570;50.962;5.340;2023-10-09T10:09:09;22.80;99.90
40848;DHT22;26570;50.962;5.340;2023-10-09T10:12:13;22.80;99.90
40848;DHT22;26570;50.962;5.340;2023-10-09T10:15:03;23.00;99.90
40848;DHT22;26570;50.962;5.340;2023-10-09T10:18:21;23.00;99.90
40848;DHT22;26570;50.962;5.340;2023-10-09T10:21:12;23.00;99.90
40848;DHT22;26570;50.962;5.340;2023-10-09T10:30:29;22.70;99.90
40848;DHT22;26570;50.962;5.340;2023-10-09T10:33:18;22.80;99.90
40848;DHT22;26570;50.962;5.340;2023-10-09T10:36:07;22.80;99.90
40848;DHT22;26570;50.962;5.340;2023-10-09T10:39:12;22.90;99.90
40848;DHT22;26570;50.962;5.340;2023-10-09T10:42:03;23.00;99.90
40848;DHT22;26570;50.962;5.340;2023-10-09T10:44:50;23.20;99.90
40848;DHT22;26570;50.962;5.340;2023-10-09T10:47:38;23.00;99.90
40848;DHT22;26570;50.962;5.340;2023-10-09T10:50:25;23.10;99.90
40848;DHT22;26570;50.962;5.340;2023-10-09T10:53:15;23.10;99.90
40848;DHT22;26570;50.962;5.340;2023-10-09T10:56:02;23.00;99.90
40848;DHT22;26570;50.962;5.340;2023-10-09T10:58:59;23.00;99.90
40848;DHT22;26570;50.962;5.340;2023-10-09T11:01:50;23.10;99.90
40848;DHT22;26570;50.962;5.340;2023-10-09T11:04:45;22.90;99.90
40848;DHT22;26570;50.962;5.340;2023-10-09T11:07:38;23.10;99.90
40848;DHT22;26570;50.962;5.340;2023-10-09T11:10:24;23.10;99.90
40848;DHT22;26570;50.962;5.340;2023-10-09T11:13:21;23.10;99.90
40848;DHT22;26570;50.962;5.340;2023-10-09T11:16:15;23.20;99.90
40848;DHT22;26570;50.962;5.340;2023-10-09T11:19:00;23.30;99.90
40848;DHT22;26570;50.962;5.340;2023-10-09T11:21:59;23.10;99.90
40848;DHT22;26570;50.962;5.340;2023-10-09T11:25:04;23.20;99.90
40848;DHT22;26570;50.962;5.340;2023-10-09T11:27:58;23.20;99.90
40848;DHT22;26570;50.962;5.340;2023-10-09T11:31:11;23.40;99.90
40848;DHT22;26570;50.962;5.340;2023-10-09T11:33:57;23.60;99.90
40848;DHT22;26570;50.962;5.340;2023-10-09T11:36:45;23.60;99.90
40848;DHT22;26570;50.962;5.340;2023-10-09T11:39:37;23.50;99.90
40848;DHT22;26570;50.962;5.340;2023-10-09T11:42:35;23.60;99.90
40848;DHT22;26570;50.962;5.340;2023-10-09T11:45:24;23.60;99.90
40848;DHT22;26570;50.962;5.340;2023-10-09T11:48:19;23.70;99.90
40848;DHT22;26570;50.962;5.340;2023-10-09T11:51:13;23.70;99.90
40848;DHT22;26570;50.962;5.340;2023-10-09T11:54:04;23.60;99.90
40848;DHT22;26570;50.962;5.340;2023-10-09T11:56:53;23.70;99.90
40848;DHT22;26570;50.962;5.340;2023-10-09T11:59:40;23.50;99.90
40848;DHT22;26570;50.962;5.340;2023-10-09T12:02:27;23.60;99.90
40848;DHT22;26570;50.962;5.340;2023-10-09T12:05:12;23.70;99.90
40848;DHT22;26570;50.962;5.340;2023-10-09T12:08:03;23.90;99.90
40848;DHT22;26570;50.962;5.340;2023-10-09T12:10:54;23.70;99.90
40848;DHT22;26570;50.962;5.340;2023-10-09T12:13:39;23.90;99.90
40848;DHT22;26570;50.962;5.340;2023-10-09T12:16:27;24.10;99.90
40848;DHT22;26570;50.962;5.340;2023-10-09T12:19:13;24.20;99.90
40848;DHT22;26570;50.962;5.340;2023-10-09T12:21:58;23.90;99.90
40848;DHT22;26570;50.962;5.340;2023-10-09T12:24:44;23.80;99.90
40848;DHT22;26570;50.962;5.340;2023-10-09T12:27:30;23.80;99.90
40848;DHT22;26570;50.962;5.340;2023-10-09T12:30:14;23.80;99.90
40848;DHT22;26570;50.962;5.340;2023-10-09T12:33:00;23.80;99.90
40848;DHT22;26570;50.962;5.340;2023-10-09T12:35:45;23.80;99.90
40848;DHT22;26570;50.962;5.340;2023-10-09T12:38:31;23.70;99.90
40848;DHT22;26570;50.962;5.340;2023-10-09T12:41:16;23.80;99.90
40848;DHT22;26570;50.962;5.340;2023-10-09T12:44:09;23.90;99.90
40848;DHT22;26570;50.962;5.340;2023-10-09T12:47:03;24.00;99.90
40848;DHT22;26570;50.962;5.340;2023-10-09T12:49:50;23.90;99.90
40848;DHT22;26570;50.962;5.340;2023-10-09T12:52:38;23.50;99.90
40848;DHT22;26570;50.962;5.340;2023-10-09T12:55:24;23.60;99.90
40848;DHT22;26570;50.962;5.340;2023-10-09T12:58:16;23.60;99.90
40848;DHT22;26570;50.962;5.340;2023-10-09T13:01:03;23.70;99.90
40848;DHT22;26570;50.962;5.340;2023-10-09T13:03:54;23.60;99.90
40848;DHT22;26570;50.962;5.340;2023-10-09T13:06:39;23.70;99.90
40848;DHT22;26570;50.962;5.340;2023-10-09T13:09:30;23.70;99.90
40848;DHT22;26570;50.962;5.340;2023-10-09T13:12:53;23.60;99.90
40848;DHT22;26570;50.962;5.340;2023-10-09T13:16:03;23.40;99.90
40848;DHT22;26570;50.962;5.340;2023-10-09T13:18:57;23.20;99.90
40848;DHT22;26570;50.962;5.340;2023-10-09T13:21:44;23.00;99.90
40848;DHT22;26570;50.962;5.340;2023-10-09T13:24:30;23.00;99.90
40848;DHT22;26570;50.962;5.340;2023-10-09T13:27:15;23.20;99.90
40848;DHT22;26570;50.962;5.340;2023-10-09T13:30:06;23.20;99.90
40848;DHT22;26570;50.962;5.340;2023-10-09T13:32:53;23.40;99.90
40848;DHT22;26570;50.962;5.340;2023-10-09T13:35:38;23.30;99.90
40848;DHT22;26570;50.962;5.340;2023-10-09T13:38:30;23.40;99.90
40848;DHT22;26570;50.962;5.340;2023-10-09T13:41:15;23.60;99.90
40848;DHT22;26570;50.962;5.340;2023-10-09T13:44:02;23.60;99.90
40848;DHT22;26570;50.962;5.340;2023-10-09T13:46:48;23.60;99.90
40848;DHT22;26570;50.962;5.340;2023-10-09T13:49:34;23.70;99.90
40848;DHT22;26570;50.962;5.340;2023-10-09T13:52:21;23.70;99.90
40848;DHT22;26570;50.962;5.340;2023-10-09T13:55:16;23.70;99.90
40848;DHT22;26570;50.962;5.340;2023-10-09T13:58:04;23.80;99.90
40848;DHT22;26570;50.962;5.340;2023-10-09T14:00:57;23.90;99.90
40848;DHT22;26570;50.962;5.340;2023-10-09T14:03:47;23.80;99.90
40848;DHT22;26570;50.962;5.340;2023-10-09T14:06:47;23.80;99.90
40848;DHT22;26570;50.962;5.340;2023-10-09T14:09:44;23.70;99.90
40848;DHT22;26570;50.962;5.340;2023-10-09T14:12:39;23.80;99.90
40848;DHT22;26570;50.962;5.340;2023-10-09T14:15:25;23.70;99.90
40848;DHT22;26570;50.962;5.340;2023-10-09T14:18:11;23.70;99.90
40848;DHT22;26570;50.962;5.340;2023-10-09T14:20:56;23.30;99.90
40848;DHT22;26570;50.962;5.340;2023-10-09T14:23:41;23.30;99.90
40848;DHT22;26570;50.962;5.340;2023-10-09T14:26:52;23.50;99.90
40848;DHT22;26570;50.962;5.340;2023-10-09T14:30:00;23.20;99.90
40848;DHT22;26570;50.962;5.340;2023-10-09T14:33:17;23.20;99.90
40848;DHT22;26570;50.962;5.340;2023-10-09T14:36:27;23.00;99.90
40848;DHT22;26570;50.962;5.340;2023-10-09T14:39:18;23.10;99.90
40848;DHT22;26570;50.962;5.340;2023-10-09T14:42:05;23.10;99.90
40848;DHT22;26570;50.962;5.340;2023-10-09T14:44:59;23.10;99.90
40848;DHT22;26570;50.962;5.340;2023-10-09T14:48:13;22.90;99.90
40848;DHT22;26570;50.962;5.340;2023-10-09T14:51:17;22.90;99.90
40848;DHT22;26570;50.962;5.340;2023-10-09T14:54:26;22.80;99.90
40848;DHT22;26570;50.962;5.340;2023-10-09T14:57:27;22.90;99.90
40848;DHT22;26570;50.962;5.340;2023-10-09T15:00:18;22.90;99.90
40848;DHT22;26570;50.962;5.340;2023-10-09T15:03:08;22.80;99.90
40848;DHT22;26570;50.962;5.340;2023-10-09T15:06:02;22.60;99.90
40848;DHT22;26570;50.962;5.340;2023-10-09T15:08:50;22.60;99.90
40848;DHT22;26570;50.962;5.340;2023-10-09T15:15:24;22.60;99.90
40848;DHT22;26570;50.962;5.340;2023-10-09T15:18:32;22.90;99.90
40848;DHT22;26570;50.962;5.340;2023-10-09T15:21:21;23.10;99.90
40848;DHT22;26570;50.962;5.340;2023-10-09T15:24:16;23.00;99.90
40848;DHT22;26570;50.962;5.340;2023-10-09T15:27:10;23.10;99.90
40848;DHT22;26570;50.962;5.340;2023-10-09T15:31:09;23.10;99.90
40848;DHT22;26570;50.962;5.340;2023-10-09T15:34:17;23.30;99.90
40848;DHT22;26570;50.962;5.340;2023-10-09T15:37:25;23.20;99.90
40848;DHT22;26570;50.962;5.340;2023-10-09T15:40:33;23.30;99.90
40848;DHT22;26570;50.962;5.340;2023-10-09T15:43:19;23.20;99.90
40848;DHT22;26570;50.962;5.340;2023-10-09T15:46:11;23.00;99.90
40848;DHT22;26570;50.962;5.340;2023-10-09T15:49:02;23.10;99.90
40848;DHT22;26570;50.962;5.340;2023-10-09T15:51:50;23.10;99.90
40848;DHT22;26570;50.962;5.340;2023-10-09T15:54:56;23.00;99.90
40848;DHT22;26570;50.962;5.340;2023-10-09T15:57:55;23.20;99.90
40848;DHT22;26570;50.962;5.340;2023-10-09T16:00:43;22.90;99.90
40848;DHT22;26570;50.962;5.340;2023-10-09T16:03:29;22.90;99.90
40848;DHT22;26570;50.962;5.340;2023-10-09T16:06:17;22.70;99.90
40848;DHT22;26570;50.962;5.340;2023-10-09T16:09:04;22.70;99.90
40848;DHT22;26570;50.962;5.340;2023-10-09T16:12:09;22.60;99.90
40848;DHT22;26570;50.962;5.340;2023-10-09T16:15:12;22.50;99.90
40848;DHT22;26570;50.962;5.340;2023-10-09T16:18:02;22.30;99.90
40848;DHT22;26570;50.962;5.340;2023-10-09T16:21:04;22.20;99.90
40848;DHT22;26570;50.962;5.340;2023-10-09T16:23:53;22.10;99.90
40848;DHT22;26570;50.962;5.340;2023-10-09T16:26:44;21.90;99.90
40848;DHT22;26570;50.962;5.340;2023-10-09T16:30:32;21.70;99.90
40848;DHT22;26570;50.962;5.340;2023-10-09T16:33:21;21.70;99.90
40848;DHT22;26570;50.962;5.340;2023-10-09T16:36:09;21.80;99.90
40848;DHT22;26570;50.962;5.340;2023-10-09T16:39:20;21.50;99.90
40848;DHT22;26570;50.962;5.340;2023-10-09T16:42:12;21.30;99.90
40848;DHT22;26570;50.962;5.340;2023-10-09T16:45:09;21.20;99.90
40848;DHT22;26570;50.962;5.340;2023-10-09T16:48:10;21.00;99.90
40848;DHT22;26570;50.962;5.340;2023-10-09T16:50:56;20.90;99.90
40848;DHT22;26570;50.962;5.340;2023-10-09T16:53:43;20.90;99.90
40848;DHT22;26570;50.962;5.340;2023-10-09T16:56:42;20.60;99.90
40848;DHT22;26570;50.962;5.340;2023-10-09T16:59:31;20.40;99.90
40848;DHT22;26570;50.962;5.340;2023-10-09T17:02:21;20.20;99.90
40848;DHT22;26570;50.962;5.340;2023-10-09T17:05:27;20.10;99.90
40848;DHT22;26570;50.962;5.340;2023-10-09T17:08:42;20.00;99.90
40848;DHT22;26570;50.962;5.340;2023-10-09T17:11:46;19.90;99.90
40848;DHT22;26570;50.962;5.340;2023-10-09T17:14:47;19.70;99.90
40848;DHT22;26570;50.962;5.340;2023-10-09T17:17:35;19.50;99.90
40848;DHT22;26570;50.962;5.340;2023-10-09T17:20:21;19.40;99.90
40848;DHT22;26570;50.962;5.340;2023-10-09T17:23:12;19.30;99.90
40848;DHT22;26570;50.962;5.340;2023-10-09T17:26:02;19.10;99.90
40848;DHT22;26570;50.962;5.340;2023-10-09T17:28:48;19.00;99.90
40848;DHT22;26570;50.962;5.340;2023-10-09T17:31:34;18.90;99.90
40848;DHT22;26570;50.962;5.340;2023-10-09T17:34:20;18.90;99.90
40848;DHT22;26570;50.962;5.340;2023-10-09T17:37:08;18.70;99.90
40848;DHT22;26570;50.962;5.340;2023-10-09T17:39:53;18.50;99.90
40848;DHT22;26570;50.962;5.340;2023-10-09T17:42:39;18.50;99.90
40848;DHT22;26570;50.962;5.340;2023-10-09T17:45:26;18.30;99.90
40848;DHT22;26570;50.962;5.340;2023-10-09T17:48:12;18.30;99.90
40848;DHT22;26570;50.962;5.340;2023-10-09T17:50:58;18.10;99.90
40848;DHT22;26570;50.962;5.340;2023-10-09T17:53:44;18.00;99.90
40848;DHT22;26570;50.962;5.340;2023-10-09T17:56:31;18.00;99.90
40848;DHT22;26570;50.962;5.340;2023-10-09T17:59:16;17.90;99.90
40848;DHT22;26570;50.962;5.340;2023-10-09T18:02:02;17.90;99.90
40848;DHT22;26570;50.962;5.340;2023-10-09T18:04:49;17.70;99.90
40848;DHT22;26570;50.962;5.340;2023-10-09T18:07:34;17.70;99.90
40848;DHT22;26570;50.962;5.340;2023-10-09T18:10:23;17.60;99.90
40848;DHT22;26570;50.962;5.340;2023-10-09T18:13:10;17.60;99.90
40848;DHT22;26570;50.962;5.340;2023-10-09T18:16:07;17.50;99.90
40848;DHT22;26570;50.962;5.340;2023-10-09T18:18:53;17.50;99.90
40848;DHT22;26570;50.962;5.340;2023-10-09T18:21:39;17.30;99.90
40848;DHT22;26570;50.962;5.340;2023-10-09T18:24:27;17.30;99.90
40848;DHT22;26570;50.962;5.340;2023-10-09T18:27:13;17.30;99.90
40848;DHT22;26570;50.962;5.340;2023-10-09T18:30:02;17.20;99.90
40848;DHT22;26570;50.962;5.340;2023-10-09T18:32:49;17.10;99.90
40848;DHT22;26570;50.962;5.340;2023-10-09T18:35:35;17.10;99.90
40848;DHT22;26570;50.962;5.340;2023-10-09T18:38:23;17.10;99.90
40848;DHT22;26570;50.962;5.340;2023-10-09T18:41:09;17.00;99.90
40848;DHT22;26570;50.962;5.340;2023-10-09T18:43:57;16.90;99.90